Suomigracht — PHBT — position and weather

sailwx.info

Track history (hours):
 
Tides and Currents Weather Stations Pressure Air Temp Water Temp Dewpoint Dewpoint Depression Visibility Wind Speed Wind Dir Waves Ship Positions

Suomigracht

Last reported at 2017-Apr-23 03:27 UTC. Time now 2017-Apr-25 12:33 UTC.
Position N 31°57' W 080°15'.

Length 173 m; beam 26 m.

Type: Cargo ship. MMSI: 246100000.

Date/timePositionNaut miles runAvg speedWind from/ knotsBaromVisibWave heightAir tempDewpointWater temp
2017-Apr-23 03:27N 31°57' W 080°15'4 9.4
2017-Apr-23 03:00N 31°57' W 080°20'5 9.6
2017-Apr-23 02:31N 31°56' W 080°25'5 9.6
2017-Apr-23 01:56N 31°56' W 080°32'4 9.6
2017-Apr-23 01:30N 31°56' W 080°36'5 9.8
2017-Apr-23 01:00N 31°58' W 080°42'711.6
2017-Apr-23 00:23N 32°02' W 080°49'512.7
2017-Apr-23 00:00N 32°02' W 080°55'612.5
2017-Apr-22 23:30N 32°06' W 081°00'4 7.1
2017-Apr-22 23:00N 32°05' W 081°04'0 0.0
2017-Apr-22 22:28N 32°05' W 081°04'0 0.0
2017-Apr-22 21:58N 32°05' W 081°04'0 0.0
2017-Apr-22 21:28N 32°05' W 081°04'0 0.0
2017-Apr-22 20:58N 32°05' W 081°04'0 0.0
2017-Apr-22 20:28N 32°05' W 081°04'0 0.0
2017-Apr-22 19:58N 32°05' W 081°04'0 0.0
2017-Apr-22 19:28N 32°05' W 081°04'0 0.0
2017-Apr-22 18:58N 32°05' W 081°04'0 0.0
2017-Apr-22 18:28N 32°05' W 081°04'0 0.0
2017-Apr-22 17:52N 32°05' W 081°04'0 0.0
2017-Apr-22 17:28N 32°05' W 081°04'0 0.0
2017-Apr-22 16:58N 32°05' W 081°04'0 0.0
2017-Apr-22 16:22N 32°05' W 081°04'0 0.0
2017-Apr-22 15:58N 32°05' W 081°04'0 0.0
2017-Apr-22 15:28N 32°05' W 081°04'0 0.0
2017-Apr-22 14:52N 32°05' W 081°04'0 0.0
2017-Apr-22 14:16N 32°05' W 081°04'0 0.0
2017-Apr-22 13:28N 32°05' W 081°04'0 0.0
2017-Apr-22 12:58N 32°05' W 081°04'0 0.0
2017-Apr-22 12:28N 32°05' W 081°04'0 0.0
2017-Apr-22 11:52N 32°05' W 081°04'0 0.0
2017-Apr-22 11:22N 32°05' W 081°04'0 0.0
2017-Apr-22 10:52N 32°05' W 081°04'0 0.0
2017-Apr-22 10:28N 32°05' W 081°04'0 0.0
2017-Apr-22 09:58N 32°05' W 081°04'0 0.0
2017-Apr-22 09:28N 32°05' W 081°04'0 0.0
2017-Apr-22 08:58N 32°05' W 081°04'0 0.0
2017-Apr-22 08:22N 32°05' W 081°04'0 0.0
2017-Apr-22 07:52N 32°05' W 081°04'0 0.0
2017-Apr-22 07:28N 32°05' W 081°04'0 0.0
2017-Apr-22 06:52N 32°05' W 081°04'0 0.0
2017-Apr-22 06:22N 32°05' W 081°04'0 0.0
2017-Apr-22 05:52N 32°05' W 081°04'0 0.0
2017-Apr-22 05:28N 32°05' W 081°04'0 0.0
2017-Apr-22 04:52N 32°05' W 081°04'0 0.0
2017-Apr-22 04:22N 32°05' W 081°04'0 0.0
2017-Apr-22 03:52N 32°05' W 081°04'0 0.0
2017-Apr-22 03:28N 32°05' W 081°04'0 0.0
2017-Apr-22 02:58N 32°05' W 081°04'0 0.0
2017-Apr-22 02:28N 32°05' W 081°04'0 0.0
2017-Apr-22 01:58N 32°05' W 081°04'0 0.0
2017-Apr-22 01:22N 32°05' W 081°04'0 0.0
2017-Apr-22 00:45N 32°05' W 081°04'0 0.0
2017-Apr-22 00:27N 32°05' W 081°04'0 0.0
2017-Apr-21 23:57N 32°05' W 081°04'0 0.3
2017-Apr-21 23:26N 32°05' W 081°04'2 4.7
2017-Apr-21 23:00N 32°06' W 081°06'1 1.4
2017-Apr-21 22:30N 32°06' W 081°07'0 0.0
2017-Apr-21 22:00N 32°06' W 081°07'0 0.0
2017-Apr-21 21:18N 32°06' W 081°07'0 0.0
2017-Apr-21 20:42N 32°06' W 081°07'0 0.0
2017-Apr-21 20:30N 32°06' W 081°07'0 0.0
2017-Apr-21 20:00N 32°06' W 081°07'0 0.0
2017-Apr-21 19:30N 32°06' W 081°07'0 0.0
2017-Apr-21 19:00N 32°06' W 081°07'0 0.0
2017-Apr-21 18:30N 32°06' W 081°07'0 0.0
2017-Apr-21 17:54N 32°06' W 081°07'0 0.0
2017-Apr-21 17:30N 32°06' W 081°07'0 0.0
2017-Apr-21 16:48N 32°06' W 081°07'0 0.0
2017-Apr-21 16:30N 32°06' W 081°07'0 0.0
2017-Apr-21 16:00N 32°06' W 081°07'0 0.0
2017-Apr-21 15:30N 32°06' W 081°07'0 0.0
2017-Apr-21 15:00N 32°06' W 081°07'0 0.0
2017-Apr-21 14:00N 32°06' W 081°07'0 0.0
2017-Apr-21 13:30N 32°06' W 081°07'0 0.0
2017-Apr-21 12:54N 32°06' W 081°07'0 0.0
2017-Apr-21 12:24N 32°06' W 081°07'0 0.0
2017-Apr-21 12:00N 32°06' W 081°07'0 0.0
2017-Apr-21 11:30N 32°06' W 081°07'0 0.0
2017-Apr-21 11:00N 32°06' W 081°07'0 0.0
2017-Apr-21 10:30N 32°06' W 081°07'0 0.0
2017-Apr-21 10:00N 32°06' W 081°07'0 0.0
2017-Apr-21 08:30N 32°06' W 081°07'0 0.0
2017-Apr-21 07:48N 32°06' W 081°07'0 0.0
2017-Apr-21 07:24N 32°06' W 081°07'0 0.0
2017-Apr-21 06:48N 32°06' W 081°07'0 0.0
2017-Apr-21 06:24N 32°06' W 081°07'0 0.0
2017-Apr-21 06:00N 32°06' W 081°07'0 0.0
2017-Apr-21 05:30N 32°06' W 081°07'0 0.0
2017-Apr-21 04:54N 32°06' W 081°07'0 0.0
2017-Apr-21 04:30N 32°06' W 081°07'0 0.0
2017-Apr-21 04:00N 32°06' W 081°07'0 0.0
2017-Apr-21 03:30N 32°06' W 081°07'0 0.0
2017-Apr-21 03:00N 32°06' W 081°07'0 0.0
2017-Apr-21 02:30N 32°06' W 081°07'0 0.0
2017-Apr-21 02:00N 32°06' W 081°07'0 0.0
2017-Apr-21 01:30N 32°06' W 081°07'0 0.0
2017-Apr-21 01:00N 32°06' W 081°07'0 0.0
2017-Apr-21 00:30N 32°06' W 081°07'0 0.0
2017-Apr-21 00:00N 32°06' W 081°07'0 0.0
2017-Apr-20 23:30N 32°06' W 081°07'0 0.0
2017-Apr-20 23:00N 32°06' W 081°07'0 0.0
2017-Apr-20 22:30N 32°06' W 081°07'0 0.0
2017-Apr-20 22:00N 32°06' W 081°07'0 0.0
2017-Apr-20 21:24N 32°06' W 081°07'0 0.0
2017-Apr-20 21:00N 32°06' W 081°07'0 0.0
2017-Apr-20 20:30N 32°06' W 081°07'0 0.0
2017-Apr-20 20:00N 32°06' W 081°07'0 0.0
2017-Apr-20 19:30N 32°06' W 081°07'0 0.0
2017-Apr-20 19:00N 32°06' W 081°07'0 0.0
2017-Apr-20 18:30N 32°06' W 081°07'0 0.0
2017-Apr-20 18:00N 32°06' W 081°07'0 0.0
2017-Apr-20 17:30N 32°06' W 081°07'0 0.0
2017-Apr-20 17:00N 32°06' W 081°07'0 0.0
2017-Apr-20 16:30N 32°06' W 081°07'0 0.0
2017-Apr-20 16:00N 32°06' W 081°07'0 0.0
2017-Apr-20 15:24N 32°06' W 081°07'0 0.0
2017-Apr-20 15:00N 32°06' W 081°07'0 0.0
2017-Apr-20 14:30N 32°06' W 081°07'0 0.0
2017-Apr-20 13:30N 32°06' W 081°07'0 0.0
2017-Apr-20 13:00N 32°06' W 081°07'0 0.0
2017-Apr-20 12:24N 32°06' W 081°07'0 0.0
2017-Apr-20 11:59N 32°06' W 081°07'0 0.0
2017-Apr-20 11:29N 32°06' W 081°07'0 0.0
2017-Apr-20 10:59N 32°06' W 081°07'0 0.0
2017-Apr-20 10:17N 32°06' W 081°07'0 0.0
2017-Apr-20 09:53N 32°06' W 081°07'0 0.0
2017-Apr-20 09:29N 32°06' W 081°07'0 0.0
2017-Apr-20 08:59N 32°06' W 081°07'0 0.0
2017-Apr-20 08:23N 32°06' W 081°07'0 0.0
2017-Apr-20 07:59N 32°06' W 081°07'0 0.0
2017-Apr-20 07:23N 32°06' W 081°07'0 0.0
2017-Apr-20 06:59N 32°06' W 081°07'0 0.0
2017-Apr-20 06:17N 32°06' W 081°07'0 0.0
2017-Apr-20 05:53N 32°06' W 081°07'0 0.0
2017-Apr-20 05:29N 32°06' W 081°07'0 0.0
2017-Apr-20 04:47N 32°06' W 081°07'0 0.0
2017-Apr-20 04:23N 32°06' W 081°07'0 0.0
2017-Apr-20 03:47N 32°06' W 081°07'0 0.0
2017-Apr-20 03:29N 32°06' W 081°07'0 0.0
2017-Apr-20 02:53N 32°06' W 081°07'0 0.0
2017-Apr-20 02:29N 32°06' W 081°07'0 0.0
2017-Apr-20 01:59N 32°06' W 081°07'0 0.0
2017-Apr-20 01:29N 32°06' W 081°07'0 0.0
2017-Apr-20 00:59N 32°06' W 081°07'1 1.9
2017-Apr-20 00:30N 32°05' W 081°06'2 4.7
2017-Apr-20 00:00N 32°05' W 081°03'4 7.2
2017-Apr-19 23:30N 32°05' W 080°59'510.8
2017-Apr-19 23:00N 32°02' W 080°54'714.2
2017-Apr-19 22:30N 31°59' W 080°46'712.1
2017-Apr-19 21:55N 31°55' W 080°39'4 9.9
2017-Apr-19 21:30N 31°52' W 080°37'10 9.9
2017-Apr-19 20:29N 31°43' W 080°31'  
2017-Apr-13 10:40N 36°47' W 075°46'7 9.3
2017-Apr-13 09:52N 36°52' W 075°53'4 9.8
2017-Apr-13 09:30N 36°55' W 075°56'5 9.2
2017-Apr-13 09:00N 36°58' W 075°60'6113.9
2017-Apr-13 04:36N 37°59' W 076°12'215.3
2017-Apr-13 04:29N 38°01' W 076°13'815.7
2017-Apr-13 04:00N 38°08' W 076°14'915.9
2017-Apr-13 03:27N 38°16' W 076°17'  
Track history (hours):
 
Tides and Currents Weather Stations Pressure Air Temp Water Temp Dewpoint Dewpoint Depression Visibility Wind Speed Wind Dir Waves Ship Positions

Suomigracht

Last reported at 2017-Apr-23 03:27 UTC. Time now 2017-Apr-25 12:33 UTC.
Position N 31°57' W 080°15'.

Length 173 m; beam 26 m.

Type: Cargo ship. MMSI: 246100000.

Date/timePositionNaut miles runAvg speedWind from/ knotsBaromVisibWave heightAir tempDewpointWater temp
2017-Apr-23 03:27N 31°57' W 080°15'4 9.4
2017-Apr-23 03:00N 31°57' W 080°20'5 9.6
2017-Apr-23 02:31N 31°56' W 080°25'5 9.6
2017-Apr-23 01:56N 31°56' W 080°32'4 9.6
2017-Apr-23 01:30N 31°56' W 080°36'5 9.8
2017-Apr-23 01:00N 31°58' W 080°42'711.6
2017-Apr-23 00:23N 32°02' W 080°49'512.7
2017-Apr-23 00:00N 32°02' W 080°55'612.5
2017-Apr-22 23:30N 32°06' W 081°00'4 7.1
2017-Apr-22 23:00N 32°05' W 081°04'0 0.0
2017-Apr-22 22:28N 32°05' W 081°04'0 0.0
2017-Apr-22 21:58N 32°05' W 081°04'0 0.0
2017-Apr-22 21:28N 32°05' W 081°04'0 0.0
2017-Apr-22 20:58N 32°05' W 081°04'0 0.0
2017-Apr-22 20:28N 32°05' W 081°04'0 0.0
2017-Apr-22 19:58N 32°05' W 081°04'0 0.0
2017-Apr-22 19:28N 32°05' W 081°04'0 0.0
2017-Apr-22 18:58N 32°05' W 081°04'0 0.0
2017-Apr-22 18:28N 32°05' W 081°04'0 0.0
2017-Apr-22 17:52N 32°05' W 081°04'0 0.0
2017-Apr-22 17:28N 32°05' W 081°04'0 0.0
2017-Apr-22 16:58N 32°05' W 081°04'0 0.0
2017-Apr-22 16:22N 32°05' W 081°04'0 0.0
2017-Apr-22 15:58N 32°05' W 081°04'0 0.0
2017-Apr-22 15:28N 32°05' W 081°04'0 0.0
2017-Apr-22 14:52N 32°05' W 081°04'0 0.0
2017-Apr-22 14:16N 32°05' W 081°04'0 0.0
2017-Apr-22 13:28N 32°05' W 081°04'0 0.0
2017-Apr-22 12:58N 32°05' W 081°04'0 0.0
2017-Apr-22 12:28N 32°05' W 081°04'0 0.0
2017-Apr-22 11:52N 32°05' W 081°04'0 0.0
2017-Apr-22 11:22N 32°05' W 081°04'0 0.0
2017-Apr-22 10:52N 32°05' W 081°04'0 0.0
2017-Apr-22 10:28N 32°05' W 081°04'0 0.0
2017-Apr-22 09:58N 32°05' W 081°04'0 0.0
2017-Apr-22 09:28N 32°05' W 081°04'0 0.0
2017-Apr-22 08:58N 32°05' W 081°04'0 0.0
2017-Apr-22 08:22N 32°05' W 081°04'0 0.0
2017-Apr-22 07:52N 32°05' W 081°04'0 0.0
2017-Apr-22 07:28N 32°05' W 081°04'0 0.0
2017-Apr-22 06:52N 32°05' W 081°04'0 0.0
2017-Apr-22 06:22N 32°05' W 081°04'0 0.0
2017-Apr-22 05:52N 32°05' W 081°04'0 0.0
2017-Apr-22 05:28N 32°05' W 081°04'0 0.0
2017-Apr-22 04:52N 32°05' W 081°04'0 0.0
2017-Apr-22 04:22N 32°05' W 081°04'0 0.0
2017-Apr-22 03:52N 32°05' W 081°04'0 0.0
2017-Apr-22 03:28N 32°05' W 081°04'0 0.0
2017-Apr-22 02:58N 32°05' W 081°04'0 0.0
2017-Apr-22 02:28N 32°05' W 081°04'0 0.0
2017-Apr-22 01:58N 32°05' W 081°04'0 0.0
2017-Apr-22 01:22N 32°05' W 081°04'0 0.0
2017-Apr-22 00:45N 32°05' W 081°04'0 0.0
2017-Apr-22 00:27N 32°05' W 081°04'0 0.0
2017-Apr-21 23:57N 32°05' W 081°04'0 0.3
2017-Apr-21 23:26N 32°05' W 081°04'2 4.7
2017-Apr-21 23:00N 32°06' W 081°06'1 1.4
2017-Apr-21 22:30N 32°06' W 081°07'0 0.0
2017-Apr-21 22:00N 32°06' W 081°07'0 0.0
2017-Apr-21 21:18N 32°06' W 081°07'0 0.0
2017-Apr-21 20:42N 32°06' W 081°07'0 0.0
2017-Apr-21 20:30N 32°06' W 081°07'0 0.0
2017-Apr-21 20:00N 32°06' W 081°07'0 0.0
2017-Apr-21 19:30N 32°06' W 081°07'0 0.0
2017-Apr-21 19:00N 32°06' W 081°07'0 0.0
2017-Apr-21 18:30N 32°06' W 081°07'0 0.0
2017-Apr-21 17:54N 32°06' W 081°07'0 0.0
2017-Apr-21 17:30N 32°06' W 081°07'0 0.0
2017-Apr-21 16:48N 32°06' W 081°07'0 0.0
2017-Apr-21 16:30N 32°06' W 081°07'0 0.0
2017-Apr-21 16:00N 32°06' W 081°07'0 0.0
2017-Apr-21 15:30N 32°06' W 081°07'0 0.0
2017-Apr-21 15:00N 32°06' W 081°07'0 0.0
2017-Apr-21 14:00N 32°06' W 081°07'0 0.0
2017-Apr-21 13:30N 32°06' W 081°07'0 0.0
2017-Apr-21 12:54N 32°06' W 081°07'0 0.0
2017-Apr-21 12:24N 32°06' W 081°07'0 0.0
2017-Apr-21 12:00N 32°06' W 081°07'0 0.0
2017-Apr-21 11:30N 32°06' W 081°07'0 0.0
2017-Apr-21 11:00N 32°06' W 081°07'0 0.0
2017-Apr-21 10:30N 32°06' W 081°07'0 0.0
2017-Apr-21 10:00N 32°06' W 081°07'0 0.0
2017-Apr-21 08:30N 32°06' W 081°07'0 0.0
2017-Apr-21 07:48N 32°06' W 081°07'0 0.0
2017-Apr-21 07:24N 32°06' W 081°07'0 0.0
2017-Apr-21 06:48N 32°06' W 081°07'0 0.0
2017-Apr-21 06:24N 32°06' W 081°07'0 0.0
2017-Apr-21 06:00N 32°06' W 081°07'0 0.0
2017-Apr-21 05:30N 32°06' W 081°07'0 0.0
2017-Apr-21 04:54N 32°06' W 081°07'0 0.0
2017-Apr-21 04:30N 32°06' W 081°07'0 0.0
2017-Apr-21 04:00N 32°06' W 081°07'0 0.0
2017-Apr-21 03:30N 32°06' W 081°07'0 0.0
2017-Apr-21 03:00N 32°06' W 081°07'0 0.0
2017-Apr-21 02:30N 32°06' W 081°07'0 0.0
2017-Apr-21 02:00N 32°06' W 081°07'0 0.0
2017-Apr-21 01:30N 32°06' W 081°07'0 0.0
2017-Apr-21 01:00N 32°06' W 081°07'0 0.0
2017-Apr-21 00:30N 32°06' W 081°07'0 0.0
2017-Apr-21 00:00N 32°06' W 081°07'0 0.0
2017-Apr-20 23:30N 32°06' W 081°07'0 0.0
2017-Apr-20 23:00N 32°06' W 081°07'0 0.0
2017-Apr-20 22:30N 32°06' W 081°07'0 0.0
2017-Apr-20 22:00N 32°06' W 081°07'0 0.0
2017-Apr-20 21:24N 32°06' W 081°07'0 0.0
2017-Apr-20 21:00N 32°06' W 081°07'0 0.0
2017-Apr-20 20:30N 32°06' W 081°07'0 0.0
2017-Apr-20 20:00N 32°06' W 081°07'0 0.0
2017-Apr-20 19:30N 32°06' W 081°07'0 0.0
2017-Apr-20 19:00N 32°06' W 081°07'0 0.0
2017-Apr-20 18:30N 32°06' W 081°07'0 0.0
2017-Apr-20 18:00N 32°06' W 081°07'0 0.0
2017-Apr-20 17:30N 32°06' W 081°07'0 0.0
2017-Apr-20 17:00N 32°06' W 081°07'0 0.0
2017-Apr-20 16:30N 32°06' W 081°07'0 0.0
2017-Apr-20 16:00N 32°06' W 081°07'0 0.0
2017-Apr-20 15:24N 32°06' W 081°07'0 0.0
2017-Apr-20 15:00N 32°06' W 081°07'0 0.0
2017-Apr-20 14:30N 32°06' W 081°07'0 0.0
2017-Apr-20 13:30N 32°06' W 081°07'0 0.0
2017-Apr-20 13:00N 32°06' W 081°07'0 0.0
2017-Apr-20 12:24N 32°06' W 081°07'0 0.0
2017-Apr-20 11:59N 32°06' W 081°07'0 0.0
2017-Apr-20 11:29N 32°06' W 081°07'0 0.0
2017-Apr-20 10:59N 32°06' W 081°07'0 0.0
2017-Apr-20 10:17N 32°06' W 081°07'0 0.0
2017-Apr-20 09:53N 32°06' W 081°07'0 0.0
2017-Apr-20 09:29N 32°06' W 081°07'0 0.0
2017-Apr-20 08:59N 32°06' W 081°07'0 0.0
2017-Apr-20 08:23N 32°06' W 081°07'0 0.0
2017-Apr-20 07:59N 32°06' W 081°07'0 0.0
2017-Apr-20 07:23N 32°06' W 081°07'0 0.0
2017-Apr-20 06:59N 32°06' W 081°07'0 0.0
2017-Apr-20 06:17N 32°06' W 081°07'0 0.0
2017-Apr-20 05:53N 32°06' W 081°07'0 0.0
2017-Apr-20 05:29N 32°06' W 081°07'0 0.0
2017-Apr-20 04:47N 32°06' W 081°07'0 0.0
2017-Apr-20 04:23N 32°06' W 081°07'0 0.0
2017-Apr-20 03:47N 32°06' W 081°07'0 0.0
2017-Apr-20 03:29N 32°06' W 081°07'0 0.0
2017-Apr-20 02:53N 32°06' W 081°07'0 0.0
2017-Apr-20 02:29N 32°06' W 081°07'0 0.0
2017-Apr-20 01:59N 32°06' W 081°07'0 0.0
2017-Apr-20 01:29N 32°06' W 081°07'0 0.0
2017-Apr-20 00:59N 32°06' W 081°07'1 1.9
2017-Apr-20 00:30N 32°05' W 081°06'2 4.7
2017-Apr-20 00:00N 32°05' W 081°03'4 7.2
2017-Apr-19 23:30N 32°05' W 080°59'510.8
2017-Apr-19 23:00N 32°02' W 080°54'714.2
2017-Apr-19 22:30N 31°59' W 080°46'712.1
2017-Apr-19 21:55N 31°55' W 080°39'4 9.9
2017-Apr-19 21:30N 31°52' W 080°37'10 9.9
2017-Apr-19 20:29N 31°43' W 080°31'  
2017-Apr-13 10:40N 36°47' W 075°46'7 9.3
2017-Apr-13 09:52N 36°52' W 075°53'4 9.8
2017-Apr-13 09:30N 36°55' W 075°56'5 9.2
2017-Apr-13 09:00N 36°58' W 075°60'6113.9
2017-Apr-13 04:36N 37°59' W 076°12'215.3
2017-Apr-13 04:29N 38°01' W 076°13'815.7
2017-Apr-13 04:00N 38°08' W 076°14'915.9
2017-Apr-13 03:27N 38°16' W 076°17'  

Dump ship's entire track history